sensor_id;sensor_type;location;lat;lon;timestamp;P1;durP1;ratioP1;P2;durP2;ratioP2
74487;SDS011;63019;51.080;13.642;2022-11-13T00:00:57;18.08;;;8.00;;
74487;SDS011;63019;51.080;13.642;2022-11-13T00:02:07;15.07;;;7.57;;
74487;SDS011;63019;51.080;13.642;2022-11-13T00:03:09;18.23;;;8.52;;
74487;SDS011;63019;51.080;13.642;2022-11-13T00:04:11;15.07;;;7.88;;
74487;SDS011;63019;51.080;13.642;2022-11-13T00:05:12;17.45;;;8.00;;
74487;SDS011;63019;51.080;13.642;2022-11-13T00:06:15;17.83;;;7.85;;
74487;SDS011;63019;51.080;13.642;2022-11-13T00:07:17;17.52;;;8.48;;
74487;SDS011;63019;51.080;13.642;2022-11-13T00:08:19;17.27;;;8.03;;
74487;SDS011;63019;51.080;13.642;2022-11-13T00:09:21;18.67;;;8.13;;
74487;SDS011;63019;51.080;13.642;2022-11-13T00:10:23;16.25;;;7.90;;
74487;SDS011;63019;51.080;13.642;2022-11-13T00:11:24;19.05;;;8.00;;
74487;SDS011;63019;51.080;13.642;2022-11-13T00:12:27;14.90;;;7.88;;
74487;SDS011;63019;51.080;13.642;2022-11-13T00:13:30;21.50;;;8.50;;
74487;SDS011;63019;51.080;13.642;2022-11-13T00:14:32;16.10;;;7.30;;
74487;SDS011;63019;51.080;13.642;2022-11-13T00:15:33;17.13;;;7.97;;
74487;SDS011;63019;51.080;13.642;2022-11-13T00:16:35;17.77;;;8.70;;
74487;SDS011;63019;51.080;13.642;2022-11-13T00:17:37;19.80;;;8.30;;
74487;SDS011;63019;51.080;13.642;2022-11-13T00:18:39;16.47;;;8.13;;
74487;SDS011;63019;51.080;13.642;2022-11-13T00:19:41;17.67;;;8.02;;
74487;SDS011;63019;51.080;13.642;2022-11-13T00:20:42;20.52;;;8.68;;
74487;SDS011;63019;51.080;13.642;2022-11-13T00:21:44;16.63;;;8.15;;
74487;SDS011;63019;51.080;13.642;2022-11-13T00:22:46;24.52;;;8.18;;
74487;SDS011;63019;51.080;13.642;2022-11-13T00:23:48;20.92;;;7.55;;
74487;SDS011;63019;51.080;13.642;2022-11-13T00:24:50;20.13;;;8.57;;
74487;SDS011;63019;51.080;13.642;2022-11-13T00:25:52;17.23;;;8.25;;
74487;SDS011;63019;51.080;13.642;2022-11-13T00:26:54;15.68;;;7.97;;
74487;SDS011;63019;51.080;13.642;2022-11-13T00:27:55;19.17;;;8.18;;
74487;SDS011;63019;51.080;13.642;2022-11-13T00:28:58;19.17;;;8.57;;
74487;SDS011;63019;51.080;13.642;2022-11-13T00:30:03;17.92;;;7.88;;
74487;SDS011;63019;51.080;13.642;2022-11-13T00:31:05;16.38;;;8.05;;
74487;SDS011;63019;51.080;13.642;2022-11-13T00:32:08;18.20;;;7.97;;
74487;SDS011;63019;51.080;13.642;2022-11-13T00:33:10;18.13;;;7.88;;
74487;SDS011;63019;51.080;13.642;2022-11-13T00:34:12;18.52;;;8.50;;
74487;SDS011;63019;51.080;13.642;2022-11-13T00:35:33;17.83;;;7.90;;
74487;SDS011;63019;51.080;13.642;2022-11-13T00:36:35;15.60;;;7.65;;
74487;SDS011;63019;51.080;13.642;2022-11-13T00:37:37;15.90;;;7.78;;
74487;SDS011;63019;51.080;13.642;2022-11-13T00:38:39;14.05;;;8.13;;
74487;SDS011;63019;51.080;13.642;2022-11-13T00:39:40;17.67;;;8.30;;
74487;SDS011;63019;51.080;13.642;2022-11-13T00:40:42;18.35;;;8.32;;
74487;SDS011;63019;51.080;13.642;2022-11-13T00:41:44;17.88;;;8.23;;
74487;SDS011;63019;51.080;13.642;2022-11-13T00:42:46;21.17;;;9.00;;
74487;SDS011;63019;51.080;13.642;2022-11-13T00:43:47;21.25;;;8.25;;
74487;SDS011;63019;51.080;13.642;2022-11-13T00:44:49;20.58;;;8.23;;
74487;SDS011;63019;51.080;13.642;2022-11-13T00:45:51;20.85;;;8.45;;
74487;SDS011;63019;51.080;13.642;2022-11-13T00:46:53;17.73;;;8.38;;
74487;SDS011;63019;51.080;13.642;2022-11-13T00:47:55;20.92;;;8.73;;
74487;SDS011;63019;51.080;13.642;2022-11-13T00:48:57;20.52;;;7.93;;
74487;SDS011;63019;51.080;13.642;2022-11-13T00:49:59;21.10;;;8.30;;
74487;SDS011;63019;51.080;13.642;2022-11-13T00:51:01;17.95;;;8.35;;
74487;SDS011;63019;51.080;13.642;2022-11-13T00:52:03;17.77;;;8.02;;
74487;SDS011;63019;51.080;13.642;2022-11-13T00:53:05;21.92;;;9.15;;
74487;SDS011;63019;51.080;13.642;2022-11-13T00:54:07;18.25;;;7.57;;
74487;SDS011;63019;51.080;13.642;2022-11-13T00:55:08;20.25;;;8.38;;
74487;SDS011;63019;51.080;13.642;2022-11-13T00:56:10;21.08;;;8.88;;
74487;SDS011;63019;51.080;13.642;2022-11-13T00:57:12;19.83;;;8.80;;
74487;SDS011;63019;51.080;13.642;2022-11-13T00:58:14;19.58;;;8.38;;
74487;SDS011;63019;51.080;13.642;2022-11-13T00:59:16;22.65;;;9.18;;
74487;SDS011;63019;51.080;13.642;2022-11-13T01:00:17;18.63;;;8.70;;
74487;SDS011;63019;51.080;13.642;2022-11-13T01:01:19;20.13;;;8.13;;
74487;SDS011;63019;51.080;13.642;2022-11-13T01:02:21;20.83;;;8.63;;
74487;SDS011;63019;51.080;13.642;2022-11-13T01:03:23;18.42;;;8.32;;
74487;SDS011;63019;51.080;13.642;2022-11-13T01:04:25;20.02;;;9.05;;
74487;SDS011;63019;51.080;13.642;2022-11-13T01:05:28;20.30;;;8.40;;
74487;SDS011;63019;51.080;13.642;2022-11-13T01:06:30;17.80;;;8.48;;
74487;SDS011;63019;51.080;13.642;2022-11-13T01:07:34;18.42;;;7.88;;
74487;SDS011;63019;51.080;13.642;2022-11-13T01:08:37;20.77;;;9.20;;
74487;SDS011;63019;51.080;13.642;2022-11-13T01:09:38;19.92;;;9.20;;
74487;SDS011;63019;51.080;13.642;2022-11-13T01:10:42;17.83;;;8.30;;
74487;SDS011;63019;51.080;13.642;2022-11-13T01:11:53;18.63;;;8.70;;
74487;SDS011;63019;51.080;13.642;2022-11-13T01:12:55;19.38;;;8.65;;
74487;SDS011;63019;51.080;13.642;2022-11-13T01:13:56;17.60;;;9.00;;
74487;SDS011;63019;51.080;13.642;2022-11-13T01:14:58;19.77;;;8.68;;
74487;SDS011;63019;51.080;13.642;2022-11-13T01:16:03;21.08;;;8.35;;
74487;SDS011;63019;51.080;13.642;2022-11-13T01:17:06;18.88;;;8.35;;
74487;SDS011;63019;51.080;13.642;2022-11-13T01:18:08;20.13;;;9.07;;
74487;SDS011;63019;51.080;13.642;2022-11-13T01:19:10;21.05;;;9.23;;
74487;SDS011;63019;51.080;13.642;2022-11-13T01:20:12;22.63;;;8.38;;
74487;SDS011;63019;51.080;13.642;2022-11-13T01:21:16;23.50;;;8.80;;
74487;SDS011;63019;51.080;13.642;2022-11-13T01:22:19;19.05;;;9.38;;
74487;SDS011;63019;51.080;13.642;2022-11-13T01:23:20;22.00;;;8.95;;
74487;SDS011;63019;51.080;13.642;2022-11-13T01:24:22;20.15;;;8.80;;
74487;SDS011;63019;51.080;13.642;2022-11-13T01:25:24;18.00;;;8.50;;
74487;SDS011;63019;51.080;13.642;2022-11-13T01:26:28;20.13;;;8.10;;
74487;SDS011;63019;51.080;13.642;2022-11-13T01:27:30;16.02;;;7.63;;
74487;SDS011;63019;51.080;13.642;2022-11-13T01:28:32;17.05;;;8.07;;
74487;SDS011;63019;51.080;13.642;2022-11-13T01:29:34;17.00;;;7.90;;
74487;SDS011;63019;51.080;13.642;2022-11-13T01:30:37;19.50;;;8.75;;
74487;SDS011;63019;51.080;13.642;2022-11-13T01:31:40;20.30;;;8.10;;
74487;SDS011;63019;51.080;13.642;2022-11-13T01:32:41;17.40;;;8.23;;
74487;SDS011;63019;51.080;13.642;2022-11-13T01:33:44;20.67;;;8.20;;
74487;SDS011;63019;51.080;13.642;2022-11-13T01:34:46;17.52;;;7.40;;
74487;SDS011;63019;51.080;13.642;2022-11-13T01:35:48;16.15;;;7.78;;
74487;SDS011;63019;51.080;13.642;2022-11-13T01:36:50;17.95;;;8.38;;
74487;SDS011;63019;51.080;13.642;2022-11-13T01:37:52;15.65;;;6.82;;
74487;SDS011;63019;51.080;13.642;2022-11-13T01:38:54;15.38;;;7.28;;
74487;SDS011;63019;51.080;13.642;2022-11-13T01:39:56;15.38;;;6.97;;
74487;SDS011;63019;51.080;13.642;2022-11-13T01:40:58;16.67;;;7.13;;
74487;SDS011;63019;51.080;13.642;2022-11-13T01:42:00;15.90;;;6.87;;
74487;SDS011;63019;51.080;13.642;2022-11-13T01:43:13;14.88;;;6.50;;
74487;SDS011;63019;51.080;13.642;2022-11-13T01:44:23;14.82;;;6.63;;
74487;SDS011;63019;51.080;13.642;2022-11-13T01:47:02;15.85;;;6.35;;
74487;SDS011;63019;51.080;13.642;2022-11-13T01:48:06;13.57;;;6.47;;
74487;SDS011;63019;51.080;13.642;2022-11-13T01:50:13;19.75;;;6.72;;
74487;SDS011;63019;51.080;13.642;2022-11-13T01:51:17;15.73;;;5.95;;
74487;SDS011;63019;51.080;13.642;2022-11-13T01:52:45;12.82;;;5.55;;
74487;SDS011;63019;51.080;13.642;2022-11-13T01:53:46;15.13;;;5.90;;
74487;SDS011;63019;51.080;13.642;2022-11-13T01:54:59;14.85;;;5.88;;
74487;SDS011;63019;51.080;13.642;2022-11-13T01:56:05;12.50;;;5.78;;
74487;SDS011;63019;51.080;13.642;2022-11-13T01:57:07;13.15;;;5.82;;
74487;SDS011;63019;51.080;13.642;2022-11-13T01:58:10;11.27;;;5.72;;
74487;SDS011;63019;51.080;13.642;2022-11-13T01:59:14;13.60;;;5.88;;
74487;SDS011;63019;51.080;13.642;2022-11-13T02:00:20;14.02;;;6.55;;
74487;SDS011;63019;51.080;13.642;2022-11-13T02:01:22;12.45;;;6.28;;
74487;SDS011;63019;51.080;13.642;2022-11-13T02:02:24;12.77;;;5.97;;
74487;SDS011;63019;51.080;13.642;2022-11-13T02:03:26;15.27;;;6.18;;
74487;SDS011;63019;51.080;13.642;2022-11-13T02:04:28;12.23;;;5.77;;
74487;SDS011;63019;51.080;13.642;2022-11-13T02:05:30;14.85;;;6.63;;
74487;SDS011;63019;51.080;13.642;2022-11-13T02:06:35;12.20;;;5.93;;
74487;SDS011;63019;51.080;13.642;2022-11-13T02:07:44;13.82;;;5.78;;
74487;SDS011;63019;51.080;13.642;2022-11-13T02:08:46;17.05;;;6.10;;
74487;SDS011;63019;51.080;13.642;2022-11-13T02:09:50;12.90;;;5.85;;
74487;SDS011;63019;51.080;13.642;2022-11-13T02:10:55;17.52;;;6.35;;
74487;SDS011;63019;51.080;13.642;2022-11-13T02:11:57;11.32;;;5.43;;
74487;SDS011;63019;51.080;13.642;2022-11-13T02:13:00;12.57;;;5.78;;
74487;SDS011;63019;51.080;13.642;2022-11-13T02:14:02;12.88;;;5.82;;
74487;SDS011;63019;51.080;13.642;2022-11-13T02:15:05;11.23;;;5.70;;
74487;SDS011;63019;51.080;13.642;2022-11-13T02:16:08;13.00;;;6.05;;
74487;SDS011;63019;51.080;13.642;2022-11-13T02:17:12;23.45;;;6.43;;
74487;SDS011;63019;51.080;13.642;2022-11-13T02:18:18;18.10;;;6.32;;
74487;SDS011;63019;51.080;13.642;2022-11-13T02:19:27;15.73;;;6.03;;
74487;SDS011;63019;51.080;13.642;2022-11-13T02:20:55;20.42;;;6.18;;
74487;SDS011;63019;51.080;13.642;2022-11-13T02:23:29;12.15;;;5.85;;
74487;SDS011;63019;51.080;13.642;2022-11-13T02:24:44;52.08;;;6.63;;
74487;SDS011;63019;51.080;13.642;2022-11-13T02:25:53;32.33;;;6.63;;
74487;SDS011;63019;51.080;13.642;2022-11-13T02:26:55;39.47;;;7.80;;
74487;SDS011;63019;51.080;13.642;2022-11-13T02:28:01;30.88;;;7.38;;
74487;SDS011;63019;51.080;13.642;2022-11-13T02:29:03;25.75;;;6.65;;
74487;SDS011;63019;51.080;13.642;2022-11-13T02:31:27;24.63;;;6.15;;
74487;SDS011;63019;51.080;13.642;2022-11-13T02:32:29;21.88;;;7.13;;
74487;SDS011;63019;51.080;13.642;2022-11-13T02:33:31;30.55;;;6.80;;
74487;SDS011;63019;51.080;13.642;2022-11-13T02:34:33;41.03;;;7.68;;
74487;SDS011;63019;51.080;13.642;2022-11-13T02:35:35;26.13;;;6.95;;
74487;SDS011;63019;51.080;13.642;2022-11-13T02:36:38;54.03;;;6.63;;
74487;SDS011;63019;51.080;13.642;2022-11-13T02:37:40;62.47;;;6.97;;
74487;SDS011;63019;51.080;13.642;2022-11-13T02:38:42;72.55;;;7.40;;
74487;SDS011;63019;51.080;13.642;2022-11-13T02:39:44;71.28;;;7.35;;
74487;SDS011;63019;51.080;13.642;2022-11-13T02:40:46;44.35;;;8.40;;
74487;SDS011;63019;51.080;13.642;2022-11-13T02:41:48;163.38;;;9.55;;
74487;SDS011;63019;51.080;13.642;2022-11-13T02:42:49;29.17;;;7.07;;
74487;SDS011;63019;51.080;13.642;2022-11-13T02:43:51;81.85;;;8.23;;
74487;SDS011;63019;51.080;13.642;2022-11-13T02:44:53;43.15;;;7.47;;
74487;SDS011;63019;51.080;13.642;2022-11-13T02:45:55;78.07;;;8.15;;
74487;SDS011;63019;51.080;13.642;2022-11-13T02:46:56;87.78;;;7.60;;
74487;SDS011;63019;51.080;13.642;2022-11-13T02:47:58;54.60;;;7.10;;
74487;SDS011;63019;51.080;13.642;2022-11-13T02:49:01;41.83;;;8.38;;
74487;SDS011;63019;51.080;13.642;2022-11-13T02:50:03;66.00;;;7.10;;
74487;SDS011;63019;51.080;13.642;2022-11-13T02:51:06;37.90;;;8.10;;
74487;SDS011;63019;51.080;13.642;2022-11-13T02:52:08;93.05;;;7.78;;
74487;SDS011;63019;51.080;13.642;2022-11-13T02:53:09;85.25;;;7.57;;
74487;SDS011;63019;51.080;13.642;2022-11-13T02:54:11;83.25;;;8.60;;
74487;SDS011;63019;51.080;13.642;2022-11-13T02:55:17;90.70;;;9.80;;
74487;SDS011;63019;51.080;13.642;2022-11-13T02:56:19;70.43;;;7.63;;
74487;SDS011;63019;51.080;13.642;2022-11-13T02:57:21;69.15;;;7.70;;
74487;SDS011;63019;51.080;13.642;2022-11-13T02:58:23;68.70;;;8.33;;
74487;SDS011;63019;51.080;13.642;2022-11-13T02:59:25;99.70;;;8.50;;
74487;SDS011;63019;51.080;13.642;2022-11-13T03:00:27;87.65;;;8.27;;
74487;SDS011;63019;51.080;13.642;2022-11-13T03:01:29;97.38;;;8.25;;
74487;SDS011;63019;51.080;13.642;2022-11-13T03:02:31;28.25;;;7.90;;
74487;SDS011;63019;51.080;13.642;2022-11-13T03:03:32;75.95;;;9.48;;
74487;SDS011;63019;51.080;13.642;2022-11-13T03:04:54;53.47;;;8.13;;
74487;SDS011;63019;51.080;13.642;2022-11-13T03:06:14;52.53;;;7.72;;
74487;SDS011;63019;51.080;13.642;2022-11-13T03:07:15;137.90;;;10.10;;
74487;SDS011;63019;51.080;13.642;2022-11-13T03:08:17;61.42;;;8.63;;
74487;SDS011;63019;51.080;13.642;2022-11-13T03:09:19;46.60;;;8.07;;
74487;SDS011;63019;51.080;13.642;2022-11-13T03:10:22;28.80;;;7.95;;
74487;SDS011;63019;51.080;13.642;2022-11-13T03:11:23;62.42;;;8.93;;
74487;SDS011;63019;51.080;13.642;2022-11-13T03:12:25;96.75;;;9.70;;
74487;SDS011;63019;51.080;13.642;2022-11-13T03:13:27;71.35;;;9.93;;
74487;SDS011;63019;51.080;13.642;2022-11-13T03:14:28;27.55;;;8.05;;
74487;SDS011;63019;51.080;13.642;2022-11-13T03:15:31;87.18;;;8.55;;
74487;SDS011;63019;51.080;13.642;2022-11-13T03:16:34;71.38;;;9.63;;
74487;SDS011;63019;51.080;13.642;2022-11-13T03:17:36;104.45;;;10.18;;
74487;SDS011;63019;51.080;13.642;2022-11-13T03:18:38;45.25;;;8.50;;
74487;SDS011;63019;51.080;13.642;2022-11-13T03:19:40;85.40;;;10.60;;
74487;SDS011;63019;51.080;13.642;2022-11-13T03:20:42;46.63;;;9.57;;
74487;SDS011;63019;51.080;13.642;2022-11-13T03:21:44;61.30;;;9.55;;
74487;SDS011;63019;51.080;13.642;2022-11-13T03:22:46;19.67;;;8.25;;
74487;SDS011;63019;51.080;13.642;2022-11-13T03:23:48;18.65;;;7.80;;
74487;SDS011;63019;51.080;13.642;2022-11-13T03:24:49;19.45;;;8.32;;
74487;SDS011;63019;51.080;13.642;2022-11-13T03:25:51;21.50;;;8.40;;
74487;SDS011;63019;51.080;13.642;2022-11-13T03:26:53;50.35;;;8.23;;
74487;SDS011;63019;51.080;13.642;2022-11-13T03:27:55;29.80;;;8.13;;
74487;SDS011;63019;51.080;13.642;2022-11-13T03:28:56;25.02;;;8.18;;
74487;SDS011;63019;51.080;13.642;2022-11-13T03:29:58;39.63;;;8.37;;
74487;SDS011;63019;51.080;13.642;2022-11-13T03:31:00;55.30;;;8.68;;
74487;SDS011;63019;51.080;13.642;2022-11-13T03:32:02;23.92;;;7.82;;
74487;SDS011;63019;51.080;13.642;2022-11-13T03:33:04;20.83;;;8.13;;
74487;SDS011;63019;51.080;13.642;2022-11-13T03:34:06;18.25;;;8.27;;
74487;SDS011;63019;51.080;13.642;2022-11-13T03:35:08;18.58;;;8.25;;
74487;SDS011;63019;51.080;13.642;2022-11-13T03:36:10;19.92;;;7.90;;
74487;SDS011;63019;51.080;13.642;2022-11-13T03:37:11;24.75;;;7.60;;
74487;SDS011;63019;51.080;13.642;2022-11-13T03:38:13;28.65;;;8.13;;
74487;SDS011;63019;51.080;13.642;2022-11-13T03:39:15;20.48;;;7.00;;
74487;SDS011;63019;51.080;13.642;2022-11-13T03:40:17;21.97;;;7.87;;
74487;SDS011;63019;51.080;13.642;2022-11-13T03:41:19;20.98;;;8.70;;
74487;SDS011;63019;51.080;13.642;2022-11-13T03:42:21;21.60;;;8.50;;
74487;SDS011;63019;51.080;13.642;2022-11-13T03:43:23;19.90;;;8.38;;
74487;SDS011;63019;51.080;13.642;2022-11-13T03:44:25;18.98;;;7.57;;
74487;SDS011;63019;51.080;13.642;2022-11-13T03:45:27;18.80;;;8.15;;
74487;SDS011;63019;51.080;13.642;2022-11-13T03:46:28;17.20;;;7.45;;
74487;SDS011;63019;51.080;13.642;2022-11-13T03:47:30;17.77;;;7.90;;
74487;SDS011;63019;51.080;13.642;2022-11-13T03:48:32;22.55;;;8.05;;
74487;SDS011;63019;51.080;13.642;2022-11-13T03:49:34;23.02;;;8.50;;
74487;SDS011;63019;51.080;13.642;2022-11-13T03:50:35;17.77;;;7.60;;
74487;SDS011;63019;51.080;13.642;2022-11-13T03:51:44;18.50;;;7.25;;
74487;SDS011;63019;51.080;13.642;2022-11-13T03:52:46;18.67;;;7.68;;
74487;SDS011;63019;51.080;13.642;2022-11-13T03:53:47;20.52;;;7.93;;
74487;SDS011;63019;51.080;13.642;2022-11-13T03:54:49;16.83;;;7.35;;
74487;SDS011;63019;51.080;13.642;2022-11-13T03:55:51;20.05;;;8.07;;
74487;SDS011;63019;51.080;13.642;2022-11-13T03:56:53;18.48;;;7.38;;
74487;SDS011;63019;51.080;13.642;2022-11-13T03:57:55;17.85;;;7.72;;
74487;SDS011;63019;51.080;13.642;2022-11-13T03:58:56;19.63;;;8.10;;
74487;SDS011;63019;51.080;13.642;2022-11-13T03:59:58;16.75;;;7.47;;
74487;SDS011;63019;51.080;13.642;2022-11-13T04:01:00;18.70;;;7.87;;
74487;SDS011;63019;51.080;13.642;2022-11-13T04:02:02;19.65;;;8.18;;
74487;SDS011;63019;51.080;13.642;2022-11-13T04:03:04;21.50;;;7.82;;
74487;SDS011;63019;51.080;13.642;2022-11-13T04:04:05;14.68;;;7.15;;
74487;SDS011;63019;51.080;13.642;2022-11-13T04:05:07;17.33;;;7.55;;
74487;SDS011;63019;51.080;13.642;2022-11-13T04:06:09;21.13;;;8.48;;
74487;SDS011;63019;51.080;13.642;2022-11-13T04:07:11;19.60;;;7.72;;
74487;SDS011;63019;51.080;13.642;2022-11-13T04:08:13;18.98;;;7.25;;
74487;SDS011;63019;51.080;13.642;2022-11-13T04:09:15;15.50;;;7.13;;
74487;SDS011;63019;51.080;13.642;2022-11-13T04:10:17;15.80;;;7.32;;
74487;SDS011;63019;51.080;13.642;2022-11-13T04:11:19;18.47;;;7.10;;
74487;SDS011;63019;51.080;13.642;2022-11-13T04:12:20;18.10;;;6.70;;
74487;SDS011;63019;51.080;13.642;2022-11-13T04:13:22;15.27;;;6.40;;
74487;SDS011;63019;51.080;13.642;2022-11-13T04:14:24;16.65;;;6.90;;
74487;SDS011;63019;51.080;13.642;2022-11-13T04:15:26;17.98;;;6.97;;
74487;SDS011;63019;51.080;13.642;2022-11-13T04:16:27;13.65;;;6.57;;
74487;SDS011;63019;51.080;13.642;2022-11-13T04:17:29;15.82;;;6.95;;
74487;SDS011;63019;51.080;13.642;2022-11-13T04:18:31;17.13;;;6.50;;
74487;SDS011;63019;51.080;13.642;2022-11-13T04:19:33;16.42;;;6.80;;
74487;SDS011;63019;51.080;13.642;2022-11-13T04:20:34;15.18;;;6.43;;
74487;SDS011;63019;51.080;13.642;2022-11-13T04:21:36;17.97;;;5.73;;
74487;SDS011;63019;51.080;13.642;2022-11-13T04:22:38;14.65;;;6.90;;
74487;SDS011;63019;51.080;13.642;2022-11-13T04:23:40;15.55;;;6.55;;
74487;SDS011;63019;51.080;13.642;2022-11-13T04:24:42;13.13;;;6.30;;
74487;SDS011;63019;51.080;13.642;2022-11-13T04:25:43;11.45;;;5.65;;
74487;SDS011;63019;51.080;13.642;2022-11-13T04:26:45;12.43;;;6.25;;
74487;SDS011;63019;51.080;13.642;2022-11-13T04:27:50;14.50;;;6.30;;
74487;SDS011;63019;51.080;13.642;2022-11-13T04:28:53;12.55;;;5.97;;
74487;SDS011;63019;51.080;13.642;2022-11-13T04:29:55;12.88;;;6.00;;
74487;SDS011;63019;51.080;13.642;2022-11-13T04:30:56;13.25;;;6.40;;
74487;SDS011;63019;51.080;13.642;2022-11-13T04:31:58;12.30;;;5.93;;
74487;SDS011;63019;51.080;13.642;2022-11-13T04:33:00;12.52;;;5.82;;
74487;SDS011;63019;51.080;13.642;2022-11-13T04:34:02;12.65;;;5.80;;
74487;SDS011;63019;51.080;13.642;2022-11-13T04:35:03;12.95;;;5.88;;
74487;SDS011;63019;51.080;13.642;2022-11-13T04:36:06;11.50;;;5.80;;
74487;SDS011;63019;51.080;13.642;2022-11-13T04:37:08;12.15;;;5.45;;
74487;SDS011;63019;51.080;13.642;2022-11-13T04:38:10;12.73;;;5.50;;
74487;SDS011;63019;51.080;13.642;2022-11-13T04:39:12;10.95;;;5.63;;
74487;SDS011;63019;51.080;13.642;2022-11-13T04:40:14;13.70;;;5.97;;
74487;SDS011;63019;51.080;13.642;2022-11-13T04:41:16;13.23;;;5.32;;
74487;SDS011;63019;51.080;13.642;2022-11-13T04:42:36;11.67;;;5.70;;
74487;SDS011;63019;51.080;13.642;2022-11-13T04:43:50;12.38;;;5.03;;
74487;SDS011;63019;51.080;13.642;2022-11-13T04:44:52;12.73;;;5.10;;
74487;SDS011;63019;51.080;13.642;2022-11-13T04:45:54;13.00;;;5.32;;
74487;SDS011;63019;51.080;13.642;2022-11-13T04:46:56;13.77;;;5.88;;
74487;SDS011;63019;51.080;13.642;2022-11-13T04:47:57;11.95;;;5.75;;
74487;SDS011;63019;51.080;13.642;2022-11-13T04:48:59;11.10;;;5.22;;
74487;SDS011;63019;51.080;13.642;2022-11-13T04:50:01;12.65;;;5.45;;
74487;SDS011;63019;51.080;13.642;2022-11-13T04:51:03;13.15;;;5.30;;
74487;SDS011;63019;51.080;13.642;2022-11-13T04:52:05;10.18;;;5.20;;
74487;SDS011;63019;51.080;13.642;2022-11-13T04:53:07;10.57;;;4.80;;
74487;SDS011;63019;51.080;13.642;2022-11-13T04:54:09;12.00;;;5.22;;
74487;SDS011;63019;51.080;13.642;2022-11-13T04:55:11;9.68;;;5.00;;
74487;SDS011;63019;51.080;13.642;2022-11-13T04:56:13;9.98;;;4.85;;
74487;SDS011;63019;51.080;13.642;2022-11-13T04:57:15;11.57;;;5.22;;
74487;SDS011;63019;51.080;13.642;2022-11-13T04:58:16;14.55;;;5.45;;
74487;SDS011;63019;51.080;13.642;2022-11-13T04:59:18;10.25;;;5.05;;
74487;SDS011;63019;51.080;13.642;2022-11-13T05:00:20;12.25;;;5.50;;
74487;SDS011;63019;51.080;13.642;2022-11-13T05:01:23;12.93;;;5.18;;
74487;SDS011;63019;51.080;13.642;2022-11-13T05:02:24;9.60;;;4.70;;
74487;SDS011;63019;51.080;13.642;2022-11-13T05:03:26;10.33;;;5.13;;
74487;SDS011;63019;51.080;13.642;2022-11-13T05:04:28;9.82;;;4.90;;
74487;SDS011;63019;51.080;13.642;2022-11-13T05:05:30;11.23;;;4.93;;
74487;SDS011;63019;51.080;13.642;2022-11-13T05:06:31;9.20;;;4.97;;
74487;SDS011;63019;51.080;13.642;2022-11-13T05:07:33;8.00;;;4.72;;
74487;SDS011;63019;51.080;13.642;2022-11-13T05:08:35;10.32;;;5.03;;
74487;SDS011;63019;51.080;13.642;2022-11-13T05:09:37;11.25;;;4.85;;
74487;SDS011;63019;51.080;13.642;2022-11-13T05:10:39;8.80;;;4.55;;
74487;SDS011;63019;51.080;13.642;2022-11-13T05:11:41;11.52;;;5.00;;
74487;SDS011;63019;51.080;13.642;2022-11-13T05:12:42;10.73;;;4.47;;
74487;SDS011;63019;51.080;13.642;2022-11-13T05:13:44;10.10;;;4.97;;
74487;SDS011;63019;51.080;13.642;2022-11-13T05:14:46;9.43;;;4.53;;
74487;SDS011;63019;51.080;13.642;2022-11-13T05:15:48;8.30;;;4.35;;
74487;SDS011;63019;51.080;13.642;2022-11-13T05:16:49;9.70;;;4.50;;
74487;SDS011;63019;51.080;13.642;2022-11-13T05:17:51;8.32;;;4.47;;
74487;SDS011;63019;51.080;13.642;2022-11-13T05:18:54;11.88;;;5.10;;
74487;SDS011;63019;51.080;13.642;2022-11-13T05:19:58;12.35;;;4.82;;
74487;SDS011;63019;51.080;13.642;2022-11-13T05:21:00;10.55;;;4.75;;
74487;SDS011;63019;51.080;13.642;2022-11-13T05:22:02;9.57;;;4.53;;
74487;SDS011;63019;51.080;13.642;2022-11-13T05:23:05;10.25;;;5.05;;
74487;SDS011;63019;51.080;13.642;2022-11-13T05:24:08;8.47;;;4.73;;
74487;SDS011;63019;51.080;13.642;2022-11-13T05:25:11;9.98;;;4.78;;
74487;SDS011;63019;51.080;13.642;2022-11-13T05:26:13;9.32;;;4.60;;
74487;SDS011;63019;51.080;13.642;2022-11-13T05:27:15;10.13;;;4.70;;
74487;SDS011;63019;51.080;13.642;2022-11-13T05:28:18;10.57;;;4.68;;
74487;SDS011;63019;51.080;13.642;2022-11-13T05:29:20;9.35;;;4.25;;
74487;SDS011;63019;51.080;13.642;2022-11-13T05:30:22;9.30;;;4.43;;
74487;SDS011;63019;51.080;13.642;2022-11-13T05:31:24;11.98;;;4.65;;
74487;SDS011;63019;51.080;13.642;2022-11-13T05:32:26;8.02;;;4.57;;
74487;SDS011;63019;51.080;13.642;2022-11-13T05:33:28;11.70;;;4.47;;
74487;SDS011;63019;51.080;13.642;2022-11-13T05:34:30;10.27;;;4.13;;
74487;SDS011;63019;51.080;13.642;2022-11-13T05:35:32;10.88;;;4.18;;
74487;SDS011;63019;51.080;13.642;2022-11-13T05:36:34;9.90;;;4.43;;
74487;SDS011;63019;51.080;13.642;2022-11-13T05:37:36;11.70;;;4.35;;
74487;SDS011;63019;51.080;13.642;2022-11-13T05:38:37;8.65;;;4.47;;
74487;SDS011;63019;51.080;13.642;2022-11-13T05:39:40;12.60;;;4.63;;
74487;SDS011;63019;51.080;13.642;2022-11-13T05:40:41;11.65;;;4.45;;
74487;SDS011;63019;51.080;13.642;2022-11-13T05:41:43;8.13;;;4.05;;
74487;SDS011;63019;51.080;13.642;2022-11-13T05:42:45;8.75;;;4.03;;
74487;SDS011;63019;51.080;13.642;2022-11-13T05:43:47;10.18;;;4.55;;
74487;SDS011;63019;51.080;13.642;2022-11-13T05:44:52;9.67;;;4.47;;
74487;SDS011;63019;51.080;13.642;2022-11-13T05:46:01;9.25;;;4.63;;
74487;SDS011;63019;51.080;13.642;2022-11-13T05:47:05;9.07;;;4.35;;
74487;SDS011;63019;51.080;13.642;2022-11-13T05:48:07;9.77;;;4.05;;
74487;SDS011;63019;51.080;13.642;2022-11-13T05:49:08;7.97;;;3.95;;
74487;SDS011;63019;51.080;13.642;2022-11-13T05:50:10;9.18;;;3.88;;
74487;SDS011;63019;51.080;13.642;2022-11-13T05:52:15;15.13;;;4.53;;
74487;SDS011;63019;51.080;13.642;2022-11-13T05:53:17;10.55;;;4.78;;
74487;SDS011;63019;51.080;13.642;2022-11-13T05:54:19;9.68;;;4.25;;
74487;SDS011;63019;51.080;13.642;2022-11-13T05:55:21;9.00;;;4.20;;
74487;SDS011;63019;51.080;13.642;2022-11-13T05:56:24;9.93;;;4.05;;
74487;SDS011;63019;51.080;13.642;2022-11-13T05:57:28;8.55;;;4.00;;
74487;SDS011;63019;51.080;13.642;2022-11-13T05:58:30;10.45;;;4.25;;
74487;SDS011;63019;51.080;13.642;2022-11-13T05:59:33;8.77;;;3.65;;
74487;SDS011;63019;51.080;13.642;2022-11-13T06:00:34;7.82;;;3.88;;
74487;SDS011;63019;51.080;13.642;2022-11-13T06:01:37;9.73;;;4.50;;
74487;SDS011;63019;51.080;13.642;2022-11-13T06:02:40;10.65;;;4.57;;
74487;SDS011;63019;51.080;13.642;2022-11-13T06:03:42;9.15;;;4.43;;
74487;SDS011;63019;51.080;13.642;2022-11-13T06:04:46;10.55;;;4.35;;
74487;SDS011;63019;51.080;13.642;2022-11-13T06:05:51;9.43;;;4.13;;
74487;SDS011;63019;51.080;13.642;2022-11-13T06:06:53;10.13;;;3.97;;
74487;SDS011;63019;51.080;13.642;2022-11-13T06:07:55;10.25;;;4.50;;
74487;SDS011;63019;51.080;13.642;2022-11-13T06:08:57;10.05;;;4.22;;
74487;SDS011;63019;51.080;13.642;2022-11-13T06:10:01;8.82;;;4.07;;
74487;SDS011;63019;51.080;13.642;2022-11-13T06:11:04;9.65;;;4.20;;
74487;SDS011;63019;51.080;13.642;2022-11-13T06:12:07;9.23;;;3.88;;
74487;SDS011;63019;51.080;13.642;2022-11-13T06:13:09;10.20;;;4.35;;
74487;SDS011;63019;51.080;13.642;2022-11-13T06:14:11;10.55;;;4.22;;
74487;SDS011;63019;51.080;13.642;2022-11-13T06:15:12;9.68;;;3.88;;